createdAt,value
2023-02-11T00:02:14.148Z,48.57
2023-02-11T00:04:42.124Z,41.93
2023-02-11T00:07:09.741Z,35.70
2023-02-11T00:09:38.505Z,48.57
2023-02-11T00:12:08.448Z,40.47
2023-02-11T00:14:36.059Z,44.67
2023-02-11T00:17:03.912Z,47.10
2023-02-11T00:19:33.862Z,46.10
2023-02-11T00:22:01.552Z,54.33
2023-02-11T00:24:30.082Z,44.23
2023-02-11T00:26:57.706Z,44.23
2023-02-11T00:29:27.814Z,40.30
2023-02-11T00:31:55.817Z,45.30
2023-02-11T00:34:23.499Z,50.20
2023-02-11T00:36:52.444Z,47.00
2023-02-11T00:39:20.046Z,48.37
2023-02-11T00:41:47.667Z,44.93
2023-02-11T00:44:15.365Z,41.40
2023-02-11T00:46:43.183Z,40.93
2023-02-11T00:49:11.312Z,42.03
2023-02-11T00:51:39.096Z,47.63
2023-02-11T00:54:08.819Z,49.37
2023-02-11T00:56:36.944Z,65.23
2023-02-11T00:59:04.732Z,49.43
2023-02-11T01:01:32.366Z,54.90
2023-02-11T01:04:00.570Z,51.53
2023-02-11T01:06:28.217Z,45.10
2023-02-11T01:08:55.814Z,42.33
2023-02-11T01:11:24.910Z,48.03
2023-02-11T01:13:52.672Z,56.03
2023-02-11T01:16:21.692Z,51.83
2023-02-11T01:18:49.698Z,39.77
2023-02-11T01:21:17.752Z,56.90
2023-02-11T01:23:45.491Z,51.63
2023-02-11T01:26:13.201Z,57.47
2023-02-11T01:28:43.257Z,58.57
2023-02-11T01:31:11.268Z,52.60
2023-02-11T01:33:39.007Z,41.07
2023-02-11T01:36:07.774Z,56.40
2023-02-11T01:38:36.309Z,39.00
2023-02-11T01:41:06.215Z,50.80
2023-02-11T01:43:37.041Z,28.47
2023-02-11T01:46:25.591Z,39.37
2023-02-11T01:48:58.658Z,34.37
2023-02-11T01:51:32.503Z,41.87
2023-02-11T01:54:19.347Z,37.80
2023-02-11T01:57:10.376Z,37.37
2023-02-11T01:59:43.315Z,45.00
2023-02-11T02:02:16.806Z,51.13
2023-02-11T02:04:53.166Z,47.87
2023-02-11T02:07:29.350Z,55.97
2023-02-11T02:10:01.330Z,61.57
2023-02-11T02:12:29.023Z,44.37
2023-02-11T02:15:19.958Z,51.17
2023-02-11T02:18:00.299Z,47.37
2023-02-11T02:20:53.699Z,42.77
2023-02-11T02:23:33.292Z,55.37
2023-02-11T02:26:35.018Z,41.47
2023-02-11T02:29:20.574Z,48.03
2023-02-11T02:32:14.825Z,50.43
2023-02-11T02:34:52.756Z,53.03
2023-02-11T02:37:28.216Z,54.37
2023-02-11T02:39:57.967Z,55.73
2023-02-11T02:42:26.100Z,54.40
2023-02-11T02:44:56.368Z,51.03
2023-02-11T02:47:24.130Z,47.70
2023-02-11T02:49:53.097Z,56.63
2023-02-11T02:52:35.849Z,51.33
2023-02-11T02:55:11.566Z,34.93
2023-02-11T02:57:50.782Z,49.77
2023-02-11T03:00:28.345Z,53.07
2023-02-11T03:03:15.872Z,59.27
2023-02-11T03:05:51.415Z,52.67
2023-02-11T03:08:29.878Z,48.73
2023-02-11T03:10:58.660Z,49.87
2023-02-11T03:13:34.929Z,54.47
2023-02-11T03:16:08.061Z,49.17
2023-02-11T03:18:39.168Z,62.10
2023-02-11T03:21:12.028Z,44.60
2023-02-11T03:23:45.561Z,52.13
2023-02-11T03:26:17.086Z,55.73
2023-02-11T03:28:52.510Z,55.63
2023-02-11T03:31:28.176Z,37.73
2023-02-11T03:34:00.453Z,37.83
2023-02-11T03:36:36.890Z,50.70
2023-02-11T03:39:07.256Z,48.00
2023-02-11T03:41:36.480Z,48.13
2023-02-11T03:44:07.094Z,34.70
2023-02-11T03:46:39.998Z,37.87
2023-02-11T03:49:13.052Z,39.27
2023-02-11T03:51:42.249Z,42.33
2023-02-11T03:54:14.449Z,41.77
2023-02-11T03:56:47.787Z,45.77
2023-02-11T03:59:16.731Z,45.13
2023-02-11T04:01:44.538Z,48.47
2023-02-11T04:04:12.300Z,42.90
2023-02-11T04:06:40.204Z,51.03
2023-02-11T04:09:09.245Z,57.10
2023-02-11T04:11:37.098Z,49.00
2023-02-11T04:14:05.062Z,43.17
2023-02-11T04:16:32.718Z,45.10
2023-02-11T04:19:01.500Z,45.33
2023-02-11T04:21:29.261Z,45.70
2023-02-11T04:23:56.928Z,45.80
2023-02-11T04:26:26.102Z,44.93
2023-02-11T04:28:53.704Z,48.03
2023-02-11T04:31:22.550Z,49.60
2023-02-11T04:33:50.291Z,42.50
2023-02-11T04:36:17.956Z,47.13
2023-02-11T04:38:45.888Z,45.13
2023-02-11T04:41:13.528Z,41.37
2023-02-11T04:43:42.612Z,37.87
2023-02-11T04:46:11.157Z,44.17
2023-02-11T04:48:38.891Z,44.47
2023-02-11T04:51:09.323Z,40.93
2023-02-11T04:53:39.126Z,42.77
2023-02-11T04:56:07.118Z,37.27
2023-02-11T04:58:34.751Z,45.13
2023-02-11T05:01:08.117Z,44.97
2023-02-11T05:03:37.781Z,45.95
2023-02-11T05:06:08.277Z,37.67
2023-02-11T05:08:35.925Z,45.70
2023-02-11T05:11:03.800Z,48.15
2023-02-11T05:13:32.266Z,45.70
2023-02-11T05:15:59.973Z,39.53
2023-02-11T05:18:29.110Z,37.10
2023-02-11T05:20:57.367Z,39.28
2023-02-11T05:23:25.005Z,39.00
2023-02-11T05:25:52.855Z,42.40
2023-02-11T05:28:20.651Z,41.00
2023-02-11T05:30:48.319Z,37.33
2023-02-11T05:33:18.403Z,38.33
2023-02-11T05:35:47.403Z,37.40
2023-02-11T05:38:17.719Z,38.03
2023-02-11T05:40:45.405Z,37.70
2023-02-11T05:43:13.314Z,35.47
2023-02-11T05:45:41.189Z,40.30
2023-02-11T05:48:11.169Z,43.17
2023-02-11T05:50:38.807Z,45.73
2023-02-11T05:53:08.723Z,44.07
2023-02-11T05:55:36.681Z,36.10
2023-02-11T05:58:04.889Z,43.60
2023-02-11T06:00:32.548Z,38.07
2023-02-11T06:03:00.422Z,40.90
2023-02-11T06:05:28.690Z,41.97
2023-02-11T06:07:56.453Z,38.93
2023-02-11T06:10:25.418Z,39.77
2023-02-11T06:12:55.129Z,33.77
2023-02-11T06:15:22.893Z,32.83
2023-02-11T06:17:50.534Z,41.00
2023-02-11T06:20:18.240Z,41.83
2023-02-11T06:22:46.902Z,29.43
2023-02-11T06:25:15.683Z,43.03
2023-02-11T06:27:44.969Z,45.50
2023-02-11T06:30:13.425Z,39.67
2023-02-11T06:32:45.468Z,38.38
2023-02-11T06:35:14.392Z,36.87
2023-02-11T06:37:42.598Z,35.60
2023-02-11T06:40:11.376Z,36.60
2023-02-11T06:42:39.533Z,39.93
2023-02-11T06:45:10.818Z,38.03
2023-02-11T06:47:38.483Z,41.53
2023-02-11T06:50:08.030Z,32.97
2023-02-11T06:52:35.750Z,40.05
2023-02-11T06:55:03.545Z,39.00
2023-02-11T06:57:31.739Z,45.03
2023-02-11T06:59:59.404Z,39.50
2023-02-11T07:02:28.369Z,34.30
2023-02-11T07:04:56.084Z,32.47
2023-02-11T07:07:24.121Z,30.27
2023-02-11T07:09:52.046Z,39.33
2023-02-11T07:12:19.935Z,37.50
2023-02-11T07:14:47.568Z,37.90
2023-02-11T07:17:15.475Z,39.17
2023-02-11T07:19:44.504Z,34.07
2023-02-11T07:22:12.452Z,35.77
2023-02-11T07:24:40.485Z,39.47
2023-02-11T07:27:08.217Z,36.50
2023-02-11T07:29:38.099Z,36.03
2023-02-11T07:32:06.602Z,33.40
2023-02-11T07:34:35.420Z,33.37
2023-02-11T07:37:04.698Z,40.90
2023-02-11T07:39:32.630Z,37.13
2023-02-11T07:42:02.449Z,40.60
2023-02-11T07:44:30.387Z,32.57
2023-02-11T07:46:58.206Z,40.13
2023-02-11T07:49:25.986Z,43.03
2023-02-11T07:51:53.731Z,34.27
2023-02-11T07:54:23.299Z,31.07
2023-02-11T07:56:53.103Z,31.73
2023-02-11T07:59:21.991Z,33.50
2023-02-11T08:01:51.413Z,38.00
2023-02-11T08:04:19.272Z,31.83
2023-02-11T08:06:46.957Z,37.07
2023-02-11T08:09:17.547Z,27.60
2023-02-11T08:11:46.538Z,36.77
2023-02-11T08:14:14.205Z,31.17
2023-02-11T08:16:42.684Z,33.73
2023-02-11T08:19:13.563Z,33.03
2023-02-11T08:21:41.843Z,33.37
2023-02-11T08:24:09.594Z,32.23
2023-02-11T08:26:37.644Z,34.23
2023-02-11T08:29:10.994Z,34.97
2023-02-11T08:31:41.352Z,30.50
2023-02-11T08:34:10.663Z,37.27
2023-02-11T08:36:40.069Z,31.27
2023-02-11T08:39:19.191Z,32.20
2023-02-11T08:41:48.666Z,35.53
2023-02-11T08:44:17.833Z,36.17
2023-02-11T08:46:45.559Z,37.03
2023-02-11T08:49:13.287Z,36.90
2023-02-11T08:51:41.090Z,32.77
2023-02-11T08:54:09.813Z,33.07
2023-02-11T08:56:38.184Z,35.40
2023-02-11T08:59:06.289Z,31.30
2023-02-11T09:01:36.460Z,36.03
2023-02-11T09:04:04.263Z,40.00
2023-02-11T09:06:33.057Z,37.07
2023-02-11T09:09:00.824Z,37.93
2023-02-11T09:11:31.551Z,40.47
2023-02-11T09:14:00.387Z,36.80
2023-02-11T09:16:30.274Z,34.43
2023-02-11T09:19:00.782Z,33.20
2023-02-11T09:21:29.640Z,30.97
2023-02-11T09:23:57.737Z,41.47
2023-02-11T09:26:27.867Z,34.60
2023-02-11T09:28:57.589Z,33.63
2023-02-11T09:31:28.126Z,35.17
2023-02-11T09:33:58.125Z,34.83
2023-02-11T09:36:30.323Z,34.70
2023-02-11T09:39:00.172Z,34.23
2023-02-11T09:41:42.321Z,36.10
2023-02-11T09:44:19.354Z,33.77
2023-02-11T09:46:54.428Z,41.65
2023-02-11T09:49:28.271Z,32.83
2023-02-11T09:52:03.871Z,43.07
2023-02-11T09:54:38.640Z,35.15
2023-02-11T09:57:10.535Z,36.23
2023-02-11T09:59:42.258Z,34.50
2023-02-11T10:02:18.066Z,29.20
2023-02-11T10:05:00.263Z,35.42
2023-02-11T10:07:38.698Z,31.30
2023-02-11T10:10:16.553Z,30.83
2023-02-11T10:13:03.851Z,37.58
2023-02-11T10:15:44.150Z,30.25
2023-02-11T10:18:32.012Z,30.42
2023-02-11T10:21:13.929Z,30.95
2023-02-11T10:23:47.885Z,38.95
2023-02-11T10:26:19.751Z,34.55
2023-02-11T10:28:55.328Z,39.70
2023-02-11T10:31:28.369Z,32.90
2023-02-11T10:34:01.327Z,37.55
2023-02-11T10:36:35.520Z,32.40
2023-02-11T10:39:17.048Z,31.65
2023-02-11T10:41:49.188Z,32.92
2023-02-11T10:44:28.582Z,38.13
2023-02-11T10:47:01.461Z,36.75
2023-02-11T10:49:40.164Z,36.88
2023-02-11T10:52:25.445Z,30.02
2023-02-11T10:55:04.080Z,32.15
2023-02-11T10:57:35.886Z,36.25
2023-02-11T11:00:20.919Z,36.22
2023-02-11T11:02:56.604Z,39.40
2023-02-11T11:05:30.844Z,34.30
2023-02-11T11:08:00.390Z,33.90
2023-02-11T11:10:43.161Z,35.55
2023-02-11T11:13:28.836Z,33.05
2023-02-11T11:16:24.339Z,41.58
2023-02-11T11:18:54.457Z,32.75
2023-02-11T11:21:26.827Z,34.00
2023-02-11T11:23:59.960Z,30.60
2023-02-11T11:26:40.610Z,35.58
2023-02-11T11:29:14.456Z,35.43
2023-02-11T11:31:49.579Z,33.13
2023-02-11T11:34:24.033Z,35.13
2023-02-11T11:36:51.910Z,34.97
2023-02-11T11:39:23.227Z,35.28
2023-02-11T11:41:59.543Z,33.45
2023-02-11T11:44:30.918Z,32.90
2023-02-11T11:47:18.421Z,39.20
2023-02-11T11:49:51.912Z,39.17
2023-02-11T11:52:27.856Z,41.33
2023-02-11T11:55:01.843Z,38.90
2023-02-11T11:57:32.567Z,38.30
2023-02-11T12:00:00.195Z,35.67
2023-02-11T12:02:58.244Z,35.08
2023-02-11T12:05:28.882Z,39.63
2023-02-11T12:08:09.379Z,31.97
2023-02-11T12:10:49.773Z,30.05
2023-02-11T12:13:31.488Z,43.17
2023-02-11T12:16:09.954Z,34.15
2023-02-11T12:18:52.392Z,28.53
2023-02-11T12:21:30.438Z,32.43
2023-02-11T12:24:17.583Z,35.08
2023-02-11T12:26:48.845Z,27.25
2023-02-11T12:29:28.338Z,38.85
2023-02-11T12:32:08.538Z,32.78
2023-02-11T12:34:47.217Z,39.13
2023-02-11T12:37:33.136Z,37.50
2023-02-11T12:40:10.893Z,34.83
2023-02-11T12:43:08.595Z,33.95
2023-02-11T12:45:50.448Z,35.13
2023-02-11T12:48:35.905Z,39.92
2023-02-11T12:51:12.909Z,34.60
2023-02-11T12:54:00.124Z,28.75
2023-02-11T12:56:36.877Z,29.58
2023-02-11T12:59:08.987Z,30.33
2023-02-11T13:01:41.655Z,32.10
2023-02-11T13:04:16.823Z,34.05
2023-02-11T13:06:47.697Z,31.23
2023-02-11T13:09:21.914Z,33.53
2023-02-11T13:11:52.715Z,30.20
2023-02-11T13:14:27.737Z,36.58
2023-02-11T13:16:58.413Z,29.63
2023-02-11T13:19:34.201Z,30.88
2023-02-11T13:22:09.262Z,36.45
2023-02-11T13:24:44.680Z,27.27
2023-02-11T13:27:25.748Z,25.30
2023-02-11T13:30:24.115Z,24.27
2023-02-11T13:33:18.194Z,31.80
2023-02-11T13:35:51.068Z,33.78
2023-02-11T13:38:22.392Z,29.33
2023-02-11T13:41:03.894Z,31.20
2023-02-11T13:43:33.659Z,27.42
2023-02-11T13:46:03.651Z,22.75
2023-02-11T13:48:36.712Z,30.38
2023-02-11T13:51:07.598Z,29.75
2023-02-11T13:53:47.505Z,30.17
2023-02-11T13:56:30.565Z,38.78
2023-02-11T13:59:02.169Z,27.25
2023-02-11T14:01:41.707Z,24.85
2023-02-11T14:04:53.478Z,22.63
2023-02-11T14:07:47.613Z,22.17
2023-02-11T14:10:50.840Z,22.70
2023-02-11T14:13:24.381Z,19.60
2023-02-11T14:16:04.969Z,31.15
2023-02-11T14:19:00.766Z,23.08
2023-02-11T14:21:36.382Z,28.38
2023-02-11T14:24:46.261Z,23.15
2023-02-11T14:27:21.234Z,25.38
2023-02-11T14:30:02.487Z,27.25
2023-02-11T14:32:42.856Z,22.23
2023-02-11T14:35:18.203Z,23.85
2023-02-11T14:37:54.372Z,26.10
2023-02-11T14:40:30.261Z,24.48
2023-02-11T14:43:02.733Z,31.55
2023-02-11T14:45:31.484Z,25.38
2023-02-11T14:48:04.174Z,25.55
2023-02-11T14:50:39.788Z,29.23
2023-02-11T14:53:15.744Z,26.23
2023-02-11T14:55:46.605Z,24.13
2023-02-11T14:58:17.812Z,25.33
2023-02-11T15:00:58.383Z,26.42
2023-02-11T15:03:37.380Z,26.17
2023-02-11T15:06:08.794Z,31.27
2023-02-11T15:08:42.982Z,27.02
2023-02-11T15:11:14.522Z,26.35
2023-02-11T15:13:47.359Z,25.85
2023-02-11T15:16:18.435Z,26.23
2023-02-11T15:18:50.068Z,27.60
2023-02-11T15:21:22.705Z,28.02
2023-02-11T15:24:01.786Z,26.10
2023-02-11T15:26:29.982Z,22.20
2023-02-11T15:28:57.700Z,24.92
2023-02-11T15:31:27.265Z,27.85
2023-02-11T15:33:55.451Z,27.90
2023-02-11T15:36:28.497Z,38.83
2023-02-11T15:39:31.357Z,31.33
2023-02-11T15:42:17.420Z,25.08
2023-02-11T15:44:45.394Z,25.25
2023-02-11T15:47:14.629Z,31.30
2023-02-11T15:49:46.145Z,27.50
2023-02-11T15:52:15.281Z,31.38
2023-02-11T15:54:47.351Z,24.73
2023-02-11T15:57:16.319Z,31.45
2023-02-11T15:59:48.172Z,25.50
2023-02-11T16:02:18.728Z,29.58
2023-02-11T16:04:52.149Z,38.90
2023-02-11T16:07:39.815Z,30.13
2023-02-11T16:10:23.460Z,33.05
2023-02-11T16:12:58.028Z,32.95
2023-02-11T16:15:34.059Z,32.25
2023-02-11T16:18:03.457Z,34.28
2023-02-11T16:20:31.691Z,35.83
2023-02-11T16:22:59.571Z,31.50
2023-02-11T16:25:28.642Z,34.22
2023-02-11T16:27:56.470Z,33.08
2023-02-11T16:30:30.512Z,30.08
2023-02-11T16:32:58.410Z,34.03
2023-02-11T16:35:26.528Z,26.90
2023-02-11T16:37:54.826Z,37.28
2023-02-11T16:40:26.082Z,24.40
2023-02-11T16:42:55.861Z,34.40
2023-02-11T16:45:23.985Z,34.15
2023-02-11T16:47:51.854Z,32.50
2023-02-11T16:50:25.572Z,28.75
2023-02-11T16:52:53.409Z,28.77
2023-02-11T16:55:22.274Z,31.63
2023-02-11T16:57:50.997Z,35.03
2023-02-11T17:00:23.447Z,31.17
2023-02-11T17:02:51.170Z,34.22
2023-02-11T17:05:22.839Z,32.08
2023-02-11T17:07:50.731Z,30.92
2023-02-11T17:10:20.278Z,32.03
2023-02-11T17:12:48.716Z,26.88
2023-02-11T17:15:16.561Z,34.80
2023-02-11T17:17:45.803Z,33.20
2023-02-11T17:20:15.238Z,32.67
2023-02-11T17:22:45.272Z,33.95
2023-02-11T17:25:13.391Z,28.42
2023-02-11T17:27:41.587Z,26.25
2023-02-11T17:30:10.366Z,26.27
2023-02-11T17:32:38.202Z,36.22
2023-02-11T17:35:08.049Z,28.75
2023-02-11T17:37:35.735Z,26.60
2023-02-11T17:40:03.334Z,24.63
2023-02-11T17:42:31.227Z,34.25
2023-02-11T17:44:58.883Z,30.98
2023-02-11T17:47:26.849Z,27.90
2023-02-11T17:49:54.570Z,31.05
2023-02-11T17:52:24.191Z,30.33
2023-02-11T17:54:51.947Z,29.23
2023-02-11T17:57:22.316Z,32.95
2023-02-11T17:59:50.269Z,36.25
2023-02-11T18:02:18.534Z,30.50
2023-02-11T18:04:46.738Z,29.52
2023-02-11T18:07:14.504Z,30.23
2023-02-11T18:09:44.801Z,27.70
2023-02-11T18:12:12.494Z,30.92
2023-02-11T18:14:44.546Z,28.85
2023-02-11T18:17:12.603Z,31.02
2023-02-11T18:19:40.664Z,33.70
2023-02-11T18:22:09.629Z,30.38
2023-02-11T18:24:37.298Z,33.15
2023-02-11T18:27:08.740Z,30.58
2023-02-11T18:29:36.866Z,29.50
2023-02-11T18:32:04.813Z,30.30
2023-02-11T18:34:32.952Z,35.25
2023-02-11T18:37:01.014Z,26.10
2023-02-11T18:39:30.488Z,33.15
2023-02-11T18:41:58.864Z,29.77
2023-02-11T18:44:28.322Z,25.38
2023-02-11T18:46:57.184Z,27.27
2023-02-11T18:49:24.908Z,23.27
2023-02-11T18:51:53.170Z,29.65
2023-02-11T18:54:23.793Z,23.85
2023-02-11T18:56:51.730Z,23.05
2023-02-11T18:59:20.182Z,23.90
2023-02-11T19:01:49.387Z,22.02
2023-02-11T19:04:20.253Z,21.23
2023-02-11T19:06:49.644Z,21.98
2023-02-11T19:09:19.702Z,25.83
2023-02-11T19:11:54.124Z,25.30
2023-02-11T19:14:23.910Z,30.00
2023-02-11T19:16:55.618Z,25.20
2023-02-11T19:19:28.760Z,24.13
2023-02-11T19:21:57.382Z,29.67
2023-02-11T19:24:25.522Z,32.08
2023-02-11T19:26:56.934Z,28.73
2023-02-11T19:29:25.656Z,28.23
2023-02-11T19:31:57.681Z,28.98
2023-02-11T19:34:28.216Z,23.50
2023-02-11T19:36:59.560Z,25.42
2023-02-11T19:39:28.733Z,24.63
2023-02-11T19:41:57.502Z,19.58
2023-02-11T19:44:27.182Z,24.42
2023-02-11T19:46:57.445Z,25.75
2023-02-11T19:49:32.062Z,22.35
2023-02-11T19:52:02.596Z,27.33
2023-02-11T19:54:33.866Z,24.25
2023-02-11T19:57:03.049Z,26.00
2023-02-11T19:59:32.796Z,24.17
2023-02-11T20:02:01.437Z,27.83
2023-02-11T20:04:38.054Z,27.75
2023-02-11T20:07:06.022Z,23.50
2023-02-11T20:09:33.913Z,23.02
2023-02-11T20:12:01.894Z,29.08
2023-02-11T20:14:31.461Z,25.20
2023-02-11T20:16:59.587Z,29.23
2023-02-11T20:19:38.169Z,20.20
2023-02-11T20:22:07.808Z,28.55
2023-02-11T20:24:38.460Z,24.63
2023-02-11T20:27:08.292Z,22.02
2023-02-11T20:29:36.652Z,26.33
2023-02-11T20:32:05.207Z,28.42
2023-02-11T20:34:35.940Z,23.85
2023-02-11T20:37:06.072Z,21.10
2023-02-11T20:39:37.190Z,21.38
2023-02-11T20:42:06.442Z,22.50
2023-02-11T20:44:36.898Z,23.27
2023-02-11T20:47:07.494Z,27.50
2023-02-11T20:49:35.741Z,31.40
2023-02-11T20:52:08.221Z,25.33
2023-02-11T20:54:40.753Z,26.00
2023-02-11T20:57:11.175Z,26.17
2023-02-11T20:59:41.101Z,20.98
2023-02-11T21:02:12.412Z,20.75
2023-02-11T21:04:40.787Z,28.33
2023-02-11T21:07:08.582Z,26.15
2023-02-11T21:09:36.318Z,26.58
2023-02-11T21:12:06.644Z,23.00
2023-02-11T21:14:34.641Z,21.27
2023-02-11T21:17:02.416Z,19.55
2023-02-11T21:19:30.169Z,19.80
2023-02-11T21:22:00.748Z,23.15
2023-02-11T21:24:30.710Z,18.52
2023-02-11T21:26:59.839Z,18.20
2023-02-11T21:29:30.504Z,19.52
2023-02-11T21:31:59.105Z,20.30
2023-02-11T21:34:26.835Z,21.90
2023-02-11T21:36:54.587Z,15.32
2023-02-11T21:39:23.957Z,18.33
2023-02-11T21:41:52.151Z,13.23
2023-02-11T21:44:20.084Z,14.88
2023-02-11T21:46:51.815Z,16.08
2023-02-11T21:49:20.163Z,16.10
2023-02-11T21:51:47.994Z,18.40
2023-02-11T21:54:15.849Z,15.13
2023-02-11T21:56:48.477Z,20.80
2023-02-11T21:59:18.121Z,15.35
2023-02-11T22:01:47.068Z,15.13
2023-02-11T22:04:17.028Z,14.25
2023-02-11T22:06:45.217Z,14.95
2023-02-11T22:09:12.900Z,14.45
2023-02-11T22:11:40.753Z,13.48
2023-02-11T22:14:08.856Z,15.18
2023-02-11T22:16:37.289Z,20.75
2023-02-11T22:19:07.333Z,15.65
2023-02-11T22:21:39.750Z,19.90
2023-02-11T22:24:07.978Z,18.73
2023-02-11T22:26:38.424Z,16.05
2023-02-11T22:29:08.799Z,18.27
2023-02-11T22:31:38.984Z,13.82
2023-02-11T22:34:07.137Z,15.15
2023-02-11T22:36:37.517Z,15.65
2023-02-11T22:39:10.331Z,28.08
2023-02-11T22:41:39.246Z,19.52
2023-02-11T22:44:10.444Z,20.83
2023-02-11T22:46:40.263Z,14.80
2023-02-11T22:49:09.822Z,21.45
2023-02-11T22:51:37.663Z,18.40
2023-02-11T22:54:11.353Z,15.40
2023-02-11T22:56:39.054Z,15.10
2023-02-11T22:59:08.975Z,16.00
